Report METAR

 

KSJC - San Jose, California, USA
Distance from station: NE 14km
Dati ricevuti: 02/10/2022 08:53
Molto nuvoloso
Molto nuvoloso
 Vento da SSO
Vento: SSO 9 km/h
Temperatura: 18°C
P.to Rugiada: 13°C
Umidità: 73%
Barometro: 1012.5 hPa
Nuvole: Molto nuvoloso
Visibility: 16 km
Cloud details: Molto nuvoloso 549 m
2022/10/02 06:53 KSJC 020653Z 20005KT 10SM BKN018 18/13 A2990 RMK AO2 SLP123 T01780133 $
KNUQ - Moffett Nas/Mtn, California, USA
Distance from station: N 14km
Dati ricevuti: 02/10/2022 09:15
Coperto
Coperto
 Vento da SE
Vento: SE 7 km/h
Temperatura: 18°C
P.to Rugiada: 13°C
Umidità: 73%
Barometro: 1012.5 hPa
Nuvole: Coperto
Visibility: 16 km
Cloud details: Coperto 579 m
2022/10/02 07:15 KNUQ 020715Z AUTO 14004KT 10SM OVC019 18/13 A2990 RMK AO2
 
KPAO - Palo Alto, California, USA
Distance from station: NNO 23km
Dati ricevuti: 02/10/2022 05:47
DATI Obsoleti
Parz. nuvoloso
Parz. nuvoloso
 Vento da ONO
Vento: ONO 11 km/h
Temperatura: 16°C
P.to Rugiada: 13°C
Umidità: 83%
Barometro: 1011.9 hPa
Nuvole: Parz. nuvoloso
Visibility: 16 km
Cloud details: Parz. nuvoloso 549 m
2022/10/02 03:47 KPAO 020347Z 29006KT 10SM SCT018 16/13 A2988 RMK LAST.
KRHV - San Jose/Reid, California, USA
Distance from station: ENE 19km
Dati ricevuti: 02/10/2022 06:55
DATI Obsoleti
Coperto
Coperto
 Vento da NNO
Vento: NNO 9 km/h
Temperatura: 17°C
P.to Rugiada: 13°C
Umidità: 77%
Barometro: 1012.5 hPa
Nuvole: Coperto
Visibility: 16 km
Cloud details: Coperto 457 m
2022/10/02 04:55 KRHV 020455Z 34005KT 10SM OVC015 17/13 A2990 RMK LAST
 
KOAK - Oakland, California, USA
Distance from station: NNO 50km
Dati ricevuti: 02/10/2022 08:53
Coperto
Coperto
 Vento da OSO
Vento: OSO 20 km/h
Temperatura: 17°C
P.to Rugiada: 13°C
Umidità: 77%
Barometro: 1012.5 hPa
Nuvole: Coperto
Visibility: 16 km
Cloud details: Coperto 579 m
2022/10/02 06:53 KOAK 020653Z 25011KT 10SM OVC019 17/13 A2990 RMK AO2 SLP125 T01720128
KSQL - San Carlos Airpo, California, USA
Distance from station: NO 34km
Dati ricevuti: 02/10/2022 09:15
Coperto
Coperto
 Vento da calmo
Vento: Calma
Temperatura: 17°C
P.to Rugiada: 13°C
Umidità: 77%
Barometro: 1012.9 hPa
Nuvole: Coperto
Visibility: 16 km
Cloud details: Coperto 640 m
2022/10/02 07:15 KSQL 020715Z AUTO 00000KT 10SM OVC021 17/13 A2991 RMK AO2
 
KSFO - San Francisco, California, USA
Distance from station: NO 49km
Dati ricevuti: 02/10/2022 08:56
Molto nuvoloso
Molto nuvoloso
 Vento da SSO
Vento: SSO 11 km/h
Temperatura: 17°C
P.to Rugiada: 13°C
Umidità: 77%
Barometro: 1012.5 hPa
Nuvole: Molto nuvoloso
Visibility: 16 km
Cloud details: Few Clouds 274 m
Molto nuvoloso 671 m
2022/10/02 06:56 KSFO 020656Z 21006KT 10SM FEW009 BKN022 17/13 A2990 RMK AO2 SLP125 T01720128
KE16 - San Martin, California, USA
Distance from station: ESE 43km
Dati ricevuti: 02/10/2022 09:15
Coperto
Coperto
 Vento da S
Vento: S 6 km/h
Temperatura: 16°C
P.to Rugiada: 13°C
Umidità: 83%
Barometro: 1013.5 hPa
Nuvole: Coperto
Visibility: 16 km
Cloud details: Coperto 335 m
2022/10/02 07:15 KE16 020715Z AUTO 18003KT 10SM OVC011 16/13 A2993 RMK AO2 PWINO PNO
 
KWVI - Watsonville, California, USA
Distance from station: SSE 44km
Dati ricevuti: 02/10/2022 08:53
Coperto
Coperto
 Vento da calmo
Vento: Calma
Temperatura: 16°C
P.to Rugiada: 13°C
Umidità: 83%
Barometro: 1013.2 hPa
Nuvole: Coperto
Visibility: 16 km
Cloud details: Coperto 457 m
2022/10/02 06:53 KWVI 020653Z AUTO 00000KT 10SM OVC015 16/13 A2992 RMK AO2 SLP131 T01560133
KHAF - Half Moon Bay, California, USA
Distance from station: ONO 50km
Dati ricevuti: 02/10/2022 09:15
Coperto
Coperto
 Vento da S
Vento: S 7 km/h
Temperatura: 16°C
P.to Rugiada: 15°C
Umidità: 94%
Barometro: 1012.9 hPa
Nuvole: Coperto
Visibility: 13 km
Cloud details: Coperto 579 m
2022/10/02 07:15 KHAF 020715Z AUTO 18004KT 8SM OVC019 16/15 A2991 RMK AO2
 
KHWD - Hayward, California, USA
Distance from station: N 44km
Dati ricevuti: 02/10/2022 08:54
Coperto
Coperto
 Vento da OSO
Vento: OSO 13 km/h
Temperatura: 17°C
P.to Rugiada: 13°C
Umidità: 77%
Barometro: 1012.5 hPa
Nuvole: Coperto
Visibility: 16 km
Cloud details: Coperto 549 m
2022/10/02 06:54 KHWD 020654Z 25007KT 10SM OVC018 17/13 A2990 RMK AO2 SLP132 T01720133
KLVK - Livermore, California, USA
Distance from station: NNE 51km
Dati ricevuti: 02/10/2022 08:53
Coperto
Coperto
 Vento da O
Vento: O 15 km/h
Temperatura: 17°C
P.to Rugiada: 13°C
Umidità: 77%
Barometro: 1012.2 hPa
Nuvole: Coperto
Visibility: 16 km
Cloud details: Coperto 457 m
2022/10/02 06:53 KLVK 020653Z AUTO 27008KT 10SM OVC015 17/13 A2989 RMK AO2 SLP118 T01670133